createdAt,value
2023-04-21T00:03:06.602Z,9.91
2023-04-21T00:07:09.488Z,9.98
2023-04-21T00:11:46.094Z,9.99
2023-04-21T00:15:49.029Z,10.07
2023-04-21T00:19:53.588Z,10.11
2023-04-21T00:23:56.863Z,10.13
2023-04-21T00:27:59.679Z,10.11
2023-04-21T00:32:08.386Z,10.15
2023-04-21T00:36:12.619Z,10.15
2023-04-21T00:40:16.623Z,10.19
2023-04-21T00:44:19.429Z,10.18
2023-04-21T00:48:23.404Z,10.21
2023-04-21T00:52:28.190Z,10.22
2023-04-21T00:56:33.353Z,10.24
2023-04-21T01:00:37.717Z,10.23
2023-04-21T01:04:50.555Z,10.21
2023-04-21T01:08:54.848Z,10.21
2023-04-21T01:12:57.661Z,10.21
2023-04-21T01:17:01.443Z,10.21
2023-04-21T01:21:09.457Z,10.18
2023-04-21T01:25:13.624Z,10.22
2023-04-21T01:29:40.731Z,10.20
2023-04-21T01:33:44.348Z,10.23
2023-04-21T01:37:47.165Z,10.24
2023-04-21T01:41:52.024Z,10.27
2023-04-21T01:45:54.885Z,10.29
2023-04-21T01:49:57.738Z,10.26
2023-04-21T01:54:32.353Z,10.32
2023-04-21T01:58:36.542Z,10.32
2023-04-21T02:03:08.085Z,10.31
2023-04-21T02:07:10.948Z,10.32
2023-04-21T02:11:50.312Z,10.38
2023-04-21T02:16:02.706Z,10.40
2023-04-21T02:20:25.168Z,10.42
2023-04-21T02:24:28.099Z,10.45
2023-04-21T02:28:31.657Z,10.50
2023-04-21T02:32:36.052Z,10.53
2023-04-21T02:36:40.684Z,10.59
2023-04-21T02:40:43.678Z,10.61
2023-04-21T02:44:48.004Z,10.61
2023-04-21T02:48:52.238Z,10.61
2023-04-21T02:52:55.041Z,10.65
2023-04-21T02:56:58.640Z,10.70
2023-04-21T03:01:02.282Z,10.68
2023-04-21T03:05:06.968Z,10.70
2023-04-21T03:09:10.374Z,10.80
2023-04-21T03:13:15.298Z,10.85
2023-04-21T03:17:18.271Z,10.90
2023-04-21T03:21:22.606Z,10.91
2023-04-21T03:25:27.480Z,10.96
2023-04-21T03:29:30.644Z,10.97
2023-04-21T03:33:33.446Z,10.96
2023-04-21T03:37:37.530Z,10.95
2023-04-21T03:41:40.982Z,10.93
2023-04-21T03:45:43.861Z,10.93
2023-04-21T03:49:46.605Z,10.90
2023-04-21T03:53:50.784Z,10.88
2023-04-21T03:57:54.746Z,10.87
2023-04-21T04:01:57.562Z,10.84
2023-04-21T04:06:00.402Z,10.85
2023-04-21T04:10:04.918Z,10.87
2023-04-21T04:14:07.743Z,10.88
2023-04-21T04:18:11.003Z,10.82
2023-04-21T04:22:13.784Z,10.84
2023-04-21T04:26:18.700Z,10.84
2023-04-21T04:30:21.563Z,10.78
2023-04-21T04:34:24.364Z,10.77
2023-04-21T04:38:28.389Z,10.78
2023-04-21T04:42:33.042Z,10.74
2023-04-21T04:46:36.070Z,10.74
2023-04-21T04:50:38.851Z,10.73
2023-04-21T04:54:41.663Z,10.75
2023-04-21T04:58:46.489Z,10.73
2023-04-21T05:02:49.393Z,10.74
2023-04-21T05:06:52.443Z,10.74
2023-04-21T05:10:56.363Z,10.74
2023-04-21T05:15:01.914Z,10.75
2023-04-21T05:19:04.752Z,10.75
2023-04-21T05:23:07.736Z,10.75
2023-04-21T05:27:10.509Z,10.72
2023-04-21T05:31:14.649Z,10.70
2023-04-21T05:35:17.570Z,10.76
2023-04-21T05:39:20.375Z,10.75
2023-04-21T05:43:23.394Z,10.72
2023-04-21T05:47:27.615Z,10.76
2023-04-21T05:51:32.125Z,10.78
2023-04-21T05:55:35.720Z,10.77
2023-04-21T05:59:38.454Z,10.86
2023-04-21T06:03:45.065Z,10.99
2023-04-21T06:07:48.002Z,11.02
2023-04-21T06:11:51.520Z,11.00
2023-04-21T06:15:54.379Z,11.01
2023-04-21T06:19:58.908Z,11.02
2023-04-21T06:24:01.679Z,10.98
2023-04-21T06:28:29.571Z,11.10
2023-04-21T06:32:32.372Z,11.22
2023-04-21T06:36:36.528Z,11.32
2023-04-21T06:40:39.334Z,11.43
2023-04-21T06:44:42.625Z,11.46
2023-04-21T06:48:47.043Z,11.53
2023-04-21T06:52:51.341Z,11.64
2023-04-21T06:57:00.605Z,11.77
2023-04-21T07:01:03.405Z,11.95
2023-04-21T07:05:06.936Z,12.10
2023-04-21T07:09:11.287Z,12.17
2023-04-21T07:13:14.352Z,12.21
2023-04-21T07:17:17.144Z,12.33
2023-04-21T07:21:19.962Z,12.52
2023-04-21T07:25:24.458Z,12.65
2023-04-21T07:29:27.647Z,12.78
2023-04-21T07:33:30.458Z,12.88
2023-04-21T07:37:33.280Z,12.99
2023-04-21T07:41:37.353Z,13.07
2023-04-21T07:45:40.260Z,13.11
2023-04-21T07:49:43.443Z,13.22
2023-04-21T07:53:46.205Z,13.28
2023-04-21T07:57:50.544Z,13.36
2023-04-21T08:01:54.400Z,13.61
2023-04-21T08:05:57.318Z,13.97
2023-04-21T08:10:01.174Z,14.10
2023-04-21T08:14:05.446Z,14.15
2023-04-21T08:18:09.477Z,14.19
2023-04-21T08:22:12.410Z,14.16
2023-04-21T08:26:15.615Z,14.18
2023-04-21T08:30:19.875Z,14.28
2023-04-21T08:34:25.727Z,14.32
2023-04-21T08:38:30.216Z,14.29
2023-04-21T08:42:33.430Z,14.36
2023-04-21T08:46:38.737Z,14.34
2023-04-21T08:50:45.700Z,14.36
2023-04-21T08:54:51.926Z,14.33
2023-04-21T08:58:55.003Z,14.36
2023-04-21T09:03:02.192Z,14.38
2023-04-21T09:07:05.494Z,14.30
2023-04-21T09:11:08.457Z,14.42
2023-04-21T09:15:12.604Z,14.41
2023-04-21T09:19:17.357Z,14.48
2023-04-21T09:23:22.354Z,14.61
2023-04-21T09:27:25.087Z,14.56
2023-04-21T09:31:29.129Z,14.49
2023-04-21T09:35:36.155Z,14.62
2023-04-21T09:39:52.822Z,14.55
2023-04-21T09:44:04.262Z,14.51
2023-04-21T09:48:10.600Z,14.51
2023-04-21T09:52:19.208Z,14.47
2023-04-21T09:56:26.247Z,14.49
2023-04-21T10:00:31.091Z,14.55
2023-04-21T10:04:36.170Z,14.59
2023-04-21T10:08:41.384Z,14.60
2023-04-21T10:12:45.826Z,14.57
2023-04-21T10:16:57.933Z,14.61
2023-04-21T10:21:04.442Z,14.77
2023-04-21T10:25:10.800Z,14.89
2023-04-21T10:29:16.136Z,15.06
2023-04-21T10:33:19.242Z,15.15
2023-04-21T10:37:22.085Z,15.21
2023-04-21T10:41:30.477Z,15.28
2023-04-21T10:45:34.017Z,15.34
2023-04-21T10:49:40.169Z,15.42
2023-04-21T10:53:44.934Z,15.52
2023-04-21T10:57:49.587Z,15.70
2023-04-21T11:01:52.841Z,15.79
2023-04-21T11:05:55.778Z,15.88
2023-04-21T11:10:00.017Z,15.99
2023-04-21T11:14:05.066Z,16.03
2023-04-21T11:18:08.725Z,16.13
2023-04-21T11:22:11.442Z,16.24
2023-04-21T11:26:14.596Z,16.29
2023-04-21T11:30:18.889Z,16.36
2023-04-21T11:34:22.535Z,16.49
2023-04-21T11:38:25.709Z,16.55
2023-04-21T11:42:28.905Z,16.55
2023-04-21T11:46:33.405Z,16.50
2023-04-21T11:50:38.861Z,16.51
2023-04-21T11:54:41.813Z,16.65
2023-04-21T11:58:45.995Z,16.80
2023-04-21T12:02:57.179Z,16.96
2023-04-21T12:07:02.522Z,17.31
2023-04-21T12:11:05.558Z,17.66
2023-04-21T12:15:10.629Z,17.85
2023-04-21T12:19:24.251Z,17.97
2023-04-21T12:23:27.057Z,18.19
2023-04-21T12:27:30.542Z,18.73
2023-04-21T12:31:33.873Z,19.20
2023-04-21T12:35:39.107Z,19.34
2023-04-21T12:39:41.903Z,19.47
2023-04-21T12:43:44.681Z,19.35
2023-04-21T12:47:47.518Z,19.35
2023-04-21T12:51:51.914Z,19.26
2023-04-21T12:56:04.206Z,19.03
2023-04-21T13:00:12.305Z,18.97
2023-04-21T13:04:15.461Z,18.90
2023-04-21T13:08:19.853Z,19.06
2023-04-21T13:12:22.642Z,19.09
2023-04-21T13:16:27.804Z,18.91
2023-04-21T13:20:32.270Z,18.87
2023-04-21T13:24:36.472Z,18.79
2023-04-21T13:28:39.595Z,18.72
2023-04-21T13:32:43.802Z,18.75
2023-04-21T13:36:46.729Z,18.86
2023-04-21T13:40:51.397Z,18.94
2023-04-21T13:44:54.549Z,18.98
2023-04-21T13:48:57.411Z,19.00
2023-04-21T13:53:00.299Z,19.04
2023-04-21T13:57:05.360Z,19.34
2023-04-21T14:01:08.143Z,19.73
2023-04-21T14:05:11.144Z,19.82
2023-04-21T14:09:14.018Z,20.09
2023-04-21T14:17:26.281Z,20.31
2023-04-21T14:21:29.177Z,20.28
2023-04-21T14:25:31.952Z,20.29
2023-04-21T14:29:36.293Z,20.25
2023-04-21T14:33:39.448Z,20.25
2023-04-21T14:37:42.421Z,20.22
2023-04-21T14:41:45.690Z,20.05
2023-04-21T14:45:50.156Z,19.98
2023-04-21T14:49:55.573Z,19.96
2023-04-21T14:53:58.667Z,19.93
2023-04-21T14:58:01.528Z,19.88
2023-04-21T15:02:05.921Z,19.79
2023-04-21T15:06:09.081Z,19.66
2023-04-21T15:10:12.672Z,19.58
2023-04-21T15:14:15.579Z,19.42
2023-04-21T15:18:20.901Z,19.35
2023-04-21T15:22:23.882Z,19.30
2023-04-21T15:26:26.842Z,19.22
2023-04-21T15:30:30.603Z,19.14
2023-04-21T15:34:35.055Z,19.08
2023-04-21T15:38:37.942Z,19.11
2023-04-21T15:42:41.262Z,19.07
2023-04-21T15:46:44.140Z,19.03
2023-04-21T15:50:49.448Z,18.95
2023-04-21T15:54:52.950Z,18.80
2023-04-21T15:59:02.364Z,18.75
2023-04-21T16:03:07.300Z,18.73
2023-04-21T16:07:12.220Z,18.64
2023-04-21T16:11:15.181Z,18.60
2023-04-21T16:15:23.790Z,18.46
2023-04-21T16:19:27.867Z,18.39
2023-04-21T16:23:32.202Z,18.35
2023-04-21T16:27:34.944Z,18.31
2023-04-21T16:31:37.783Z,18.27
2023-04-21T16:35:40.737Z,18.20
2023-04-21T16:39:45.010Z,18.11
2023-04-21T16:43:47.762Z,17.99
2023-04-21T16:47:50.668Z,17.89
2023-04-21T16:51:53.613Z,17.86
2023-04-21T16:55:57.880Z,17.75
2023-04-21T17:00:01.027Z,17.73
2023-04-21T17:04:04.051Z,17.76
2023-04-21T17:08:07.277Z,17.78
2023-04-21T17:12:11.589Z,17.78
2023-04-21T17:16:14.474Z,17.79
2023-04-21T17:20:17.298Z,17.73
2023-04-21T17:24:20.192Z,17.73
2023-04-21T17:28:24.672Z,17.67
2023-04-21T17:32:27.717Z,17.71
2023-04-21T17:36:31.386Z,17.77
2023-04-21T17:40:34.201Z,17.80
2023-04-21T17:44:39.940Z,17.81
2023-04-21T17:48:43.281Z,17.80
2023-04-21T17:52:46.051Z,17.77
2023-04-21T17:56:48.800Z,17.68
2023-04-21T18:00:53.027Z,17.56
2023-04-21T18:04:56.181Z,17.21
2023-04-21T18:08:59.041Z,16.52
2023-04-21T18:13:01.829Z,16.03
2023-04-21T18:17:05.966Z,15.72
2023-04-21T18:21:08.825Z,15.40
2023-04-21T18:25:12.410Z,15.37
2023-04-21T18:29:17.500Z,15.23
2023-04-21T18:33:21.832Z,15.01
2023-04-21T18:37:24.590Z,14.85
2023-04-21T18:41:27.758Z,14.53
2023-04-21T18:45:30.485Z,14.41
2023-04-21T18:49:34.804Z,14.32
2023-04-21T18:53:37.615Z,14.19
2023-04-21T18:57:40.318Z,14.12
2023-04-21T19:01:43.176Z,14.08
2023-04-21T19:05:47.982Z,13.98
2023-04-21T19:09:52.109Z,13.87
2023-04-21T19:13:55.036Z,13.84
2023-04-21T19:17:57.943Z,13.72
2023-04-21T19:22:04.148Z,13.69
2023-04-21T19:26:08.595Z,13.72
2023-04-21T19:30:12.365Z,13.75
2023-04-21T19:34:15.312Z,13.75
2023-04-21T19:38:19.854Z,13.70
2023-04-21T19:42:22.641Z,13.65
2023-04-21T19:46:25.747Z,13.62
2023-04-21T19:50:28.508Z,13.57
2023-04-21T19:54:32.893Z,13.25
2023-04-21T19:58:40.693Z,12.94
2023-04-21T20:02:44.167Z,12.74
2023-04-21T20:06:47.168Z,12.57
2023-04-21T20:10:51.660Z,12.47
2023-04-21T20:14:57.666Z,12.49
2023-04-21T20:19:01.144Z,12.51
2023-04-21T20:23:04.621Z,12.60
2023-04-21T20:27:09.194Z,12.62
2023-04-21T20:31:11.987Z,12.65
2023-04-21T20:35:16.934Z,12.69
2023-04-21T20:39:19.782Z,12.77
2023-04-21T20:43:23.919Z,12.79
2023-04-21T20:47:26.859Z,12.77
2023-04-21T20:51:29.557Z,12.73
2023-04-21T20:55:32.431Z,12.65
2023-04-21T20:59:37.093Z,12.60
2023-04-21T21:03:40.596Z,12.60
2023-04-21T21:07:43.474Z,12.69
2023-04-21T21:11:46.240Z,12.75
2023-04-21T21:15:50.407Z,12.79
2023-04-21T21:19:53.146Z,12.79
2023-04-21T21:23:55.833Z,12.81
2023-04-21T21:27:58.583Z,12.83
2023-04-21T21:32:03.118Z,12.63
2023-04-21T21:36:06.610Z,12.47
2023-04-21T21:40:11.060Z,12.40
2023-04-21T21:44:13.888Z,12.29
2023-04-21T21:48:18.040Z,12.24
2023-04-21T21:52:20.873Z,12.25
2023-04-21T21:56:25.844Z,12.22
2023-04-21T22:00:28.847Z,12.20
2023-04-21T22:04:33.047Z,12.21
2023-04-21T22:08:35.925Z,12.20
2023-04-21T22:12:38.730Z,12.23
2023-04-21T22:16:43.089Z,12.19
2023-04-21T22:20:47.507Z,12.21
2023-04-21T22:24:50.292Z,12.24
2023-04-21T22:28:54.714Z,12.21
2023-04-21T22:32:57.712Z,12.20
2023-04-21T22:37:02.423Z,12.16
2023-04-21T22:41:05.494Z,12.09
2023-04-21T22:45:09.498Z,11.87
2023-04-21T22:49:12.209Z,11.80
2023-04-21T22:53:18.253Z,11.81
2023-04-21T22:57:21.673Z,11.79
2023-04-21T23:01:24.637Z,11.69
2023-04-21T23:05:27.432Z,11.60
2023-04-21T23:09:31.541Z,11.51
2023-04-21T23:13:34.309Z,11.37
2023-04-21T23:17:37.161Z,11.26
2023-04-21T23:21:40.085Z,11.20
2023-04-21T23:25:44.432Z,11.14
2023-04-21T23:29:47.275Z,11.07
2023-04-21T23:33:50.088Z,11.02
2023-04-21T23:37:52.786Z,10.88
2023-04-21T23:41:58.002Z,10.79
2023-04-21T23:46:00.884Z,10.75
2023-04-21T23:50:03.666Z,10.67
2023-04-21T23:54:06.468Z,10.62
2023-04-21T23:58:11.989Z,10.57
